createdAt,value
2023-01-23T00:00:54.602Z,7.28
2023-01-23T00:04:03.320Z,9.98
2023-01-23T00:07:09.549Z,8.05
2023-01-23T00:10:15.440Z,8.95
2023-01-23T00:13:24.264Z,7.38
2023-01-23T00:16:39.738Z,7.10
2023-01-23T00:19:47.341Z,7.10
2023-01-23T00:22:54.543Z,4.95
2023-01-23T00:26:05.175Z,4.40
2023-01-23T00:29:15.758Z,5.90
2023-01-23T00:32:21.366Z,5.68
2023-01-23T00:35:28.638Z,6.15
2023-01-23T00:38:39.421Z,7.25
2023-01-23T00:41:44.959Z,7.05
2023-01-23T00:44:54.893Z,6.75
2023-01-23T00:48:00.293Z,8.60
2023-01-23T00:51:06.423Z,8.02
2023-01-23T00:54:14.552Z,6.88
2023-01-23T00:57:22.256Z,5.65
2023-01-23T01:00:30.632Z,5.78
2023-01-23T01:03:37.462Z,6.22
2023-01-23T01:06:43.926Z,5.30
2023-01-23T01:09:49.898Z,5.20
2023-01-23T01:12:55.244Z,5.88
2023-01-23T01:16:04.316Z,5.25
2023-01-23T01:19:10.100Z,5.68
2023-01-23T01:22:15.671Z,5.88
2023-01-23T01:25:21.428Z,3.55
2023-01-23T01:28:28.436Z,3.10
2023-01-23T01:31:40.156Z,3.75
2023-01-23T01:34:47.889Z,4.38
2023-01-23T01:37:55.653Z,5.93
2023-01-23T01:41:01.657Z,4.93
2023-01-23T01:44:07.106Z,5.45
2023-01-23T01:47:16.267Z,5.20
2023-01-23T01:50:25.181Z,6.68
2023-01-23T01:53:32.445Z,4.50
2023-01-23T01:56:42.290Z,3.83
2023-01-23T01:59:52.327Z,3.03
2023-01-23T02:03:03.824Z,3.75
2023-01-23T02:06:10.111Z,4.20
2023-01-23T02:09:19.908Z,4.25
2023-01-23T02:12:27.323Z,6.18
2023-01-23T02:15:35.236Z,4.45
2023-01-23T02:18:50.124Z,3.53
2023-01-23T02:21:58.862Z,3.33
2023-01-23T02:25:09.097Z,3.58
2023-01-23T02:28:17.937Z,6.15
2023-01-23T02:31:24.490Z,4.45
2023-01-23T02:34:30.507Z,4.68
2023-01-23T02:37:38.087Z,4.07
2023-01-23T02:40:45.455Z,4.45
2023-01-23T02:43:55.296Z,4.38
2023-01-23T02:47:04.206Z,5.25
2023-01-23T02:50:11.037Z,7.30
2023-01-23T02:53:16.184Z,8.27
2023-01-23T02:56:23.323Z,5.53
2023-01-23T02:59:45.007Z,4.15
2023-01-23T03:02:51.763Z,4.38
2023-01-23T03:05:59.484Z,4.25
2023-01-23T03:09:11.219Z,4.63
2023-01-23T03:12:16.456Z,4.32
2023-01-23T03:15:27.748Z,4.60
2023-01-23T03:18:40.074Z,4.13
2023-01-23T03:21:52.372Z,3.60
2023-01-23T03:24:59.055Z,4.00
2023-01-23T03:28:28.521Z,4.00
2023-01-23T03:31:37.081Z,4.70
2023-01-23T03:34:43.163Z,4.32
2023-01-23T03:37:48.860Z,4.35
2023-01-23T03:41:06.643Z,4.25
2023-01-23T03:44:13.578Z,4.53
2023-01-23T03:47:22.277Z,5.10
2023-01-23T03:50:28.746Z,5.05
2023-01-23T03:53:34.888Z,4.82
2023-01-23T03:56:46.180Z,4.35
2023-01-23T03:59:52.729Z,4.65
2023-01-23T04:03:01.205Z,4.57
2023-01-23T04:06:06.765Z,5.53
2023-01-23T04:09:13.252Z,5.35
2023-01-23T04:12:21.204Z,5.43
2023-01-23T04:15:30.199Z,4.82
2023-01-23T04:18:38.530Z,5.82
2023-01-23T04:21:46.471Z,5.15
2023-01-23T04:24:54.177Z,4.43
2023-01-23T04:28:01.038Z,4.57
2023-01-23T04:31:11.240Z,4.60
2023-01-23T04:34:19.683Z,4.85
2023-01-23T04:37:28.429Z,5.78
2023-01-23T04:40:33.818Z,8.48
2023-01-23T04:43:39.428Z,8.90
2023-01-23T04:46:45.795Z,10.10
2023-01-23T04:49:55.947Z,8.35
2023-01-23T04:53:02.178Z,5.57
2023-01-23T04:56:09.635Z,5.72
2023-01-23T04:59:17.656Z,5.47
2023-01-23T05:02:26.403Z,5.10
2023-01-23T05:05:36.712Z,6.13
2023-01-23T05:08:42.778Z,5.75
2023-01-23T05:11:52.830Z,6.05
2023-01-23T05:14:59.874Z,5.97
2023-01-23T05:18:06.010Z,5.03
2023-01-23T05:21:20.626Z,4.63
2023-01-23T05:24:25.744Z,4.13
2023-01-23T05:27:32.986Z,3.83
2023-01-23T05:30:39.334Z,3.40
2023-01-23T05:33:47.091Z,4.15
2023-01-23T05:36:55.687Z,4.80
2023-01-23T05:40:01.015Z,5.10
2023-01-23T05:43:08.160Z,4.72
2023-01-23T05:46:13.698Z,4.20
2023-01-23T05:49:21.540Z,4.38
2023-01-23T05:52:34.051Z,4.82
2023-01-23T05:55:40.877Z,4.15
2023-01-23T05:58:48.407Z,5.90
2023-01-23T06:01:55.018Z,5.70
2023-01-23T06:05:11.118Z,4.00
2023-01-23T06:08:22.334Z,4.50
2023-01-23T06:11:30.839Z,4.70
2023-01-23T06:14:36.038Z,5.47
2023-01-23T06:17:45.842Z,4.85
2023-01-23T06:20:54.242Z,5.10
2023-01-23T06:24:05.418Z,5.40
2023-01-23T06:27:10.835Z,4.10
2023-01-23T06:30:16.822Z,4.80
2023-01-23T06:33:22.019Z,4.97
2023-01-23T06:36:28.546Z,4.80
2023-01-23T06:39:39.612Z,4.32
2023-01-23T06:42:45.516Z,4.50
2023-01-23T06:45:54.397Z,5.53
2023-01-23T06:49:06.006Z,4.18
2023-01-23T06:52:11.443Z,5.25
2023-01-23T06:55:22.930Z,6.50
2023-01-23T06:58:34.539Z,5.50
2023-01-23T07:01:45.595Z,5.32
2023-01-23T07:04:51.275Z,5.68
2023-01-23T07:07:57.070Z,6.07
2023-01-23T07:11:06.731Z,5.20
2023-01-23T07:14:13.753Z,4.78
2023-01-23T07:17:19.117Z,5.65
2023-01-23T07:20:28.429Z,4.85
2023-01-23T07:23:37.329Z,4.63
2023-01-23T07:26:47.995Z,4.53
2023-01-23T07:29:58.901Z,4.60
2023-01-23T07:33:04.698Z,5.47
2023-01-23T07:36:10.419Z,5.97
2023-01-23T07:39:16.376Z,6.15
2023-01-23T07:42:26.949Z,8.48
2023-01-23T07:45:33.632Z,7.13
2023-01-23T07:48:41.136Z,12.95
2023-01-23T07:51:49.821Z,12.68
2023-01-23T07:54:55.210Z,9.18
2023-01-23T07:58:06.534Z,9.55
2023-01-23T08:01:12.460Z,7.30
2023-01-23T08:04:27.718Z,4.53
2023-01-23T08:07:33.138Z,5.13
2023-01-23T08:10:39.556Z,4.32
2023-01-23T08:13:51.741Z,4.35
2023-01-23T08:16:57.836Z,4.82
2023-01-23T08:20:10.910Z,4.13
2023-01-23T08:23:17.216Z,4.15
2023-01-23T08:26:28.256Z,4.72
2023-01-23T08:29:38.231Z,4.30
2023-01-23T08:32:47.238Z,5.63
2023-01-23T08:35:59.082Z,5.03
2023-01-23T08:39:07.257Z,5.47
2023-01-23T08:42:18.204Z,7.88
2023-01-23T08:45:29.991Z,6.60
2023-01-23T08:48:41.495Z,7.00
2023-01-23T08:51:46.653Z,6.90
2023-01-23T08:54:55.014Z,5.75
2023-01-23T09:01:24.111Z,4.95
2023-01-23T09:04:33.497Z,3.85
2023-01-23T09:07:39.187Z,8.32
2023-01-23T09:10:44.601Z,6.05
2023-01-23T09:13:53.647Z,5.47
2023-01-23T09:17:04.679Z,5.13
2023-01-23T09:20:20.423Z,5.40
2023-01-23T09:23:26.187Z,6.45
2023-01-23T09:26:32.361Z,7.90
2023-01-23T09:29:40.274Z,11.68
2023-01-23T09:32:48.702Z,4.88
2023-01-23T09:35:55.740Z,5.80
2023-01-23T09:39:05.452Z,4.78
2023-01-23T09:42:19.325Z,4.53
2023-01-23T09:45:29.403Z,4.68
2023-01-23T09:48:42.875Z,4.57
2023-01-23T09:51:55.987Z,5.13
2023-01-23T09:55:04.410Z,5.50
2023-01-23T09:58:15.094Z,6.03
2023-01-23T10:01:20.729Z,4.93
2023-01-23T10:04:31.771Z,5.13
2023-01-23T10:07:51.688Z,3.87
2023-01-23T10:11:00.383Z,4.80
2023-01-23T10:14:12.885Z,5.18
2023-01-23T10:20:44.091Z,5.60
2023-01-23T10:23:58.500Z,4.38
2023-01-23T10:27:08.194Z,4.50
2023-01-23T10:30:30.068Z,4.55
2023-01-23T10:33:42.050Z,4.75
2023-01-23T10:36:56.342Z,7.20
2023-01-23T10:40:07.683Z,5.03
2023-01-23T10:43:16.236Z,6.10
2023-01-23T10:46:23.096Z,6.40
2023-01-23T10:49:36.615Z,6.68
2023-01-23T10:52:43.691Z,8.73
2023-01-23T10:55:53.478Z,6.85
2023-01-23T10:58:59.219Z,5.78
2023-01-23T11:02:20.416Z,7.15
2023-01-23T11:05:50.697Z,5.68
2023-01-23T11:09:00.517Z,4.65
2023-01-23T11:12:10.107Z,5.32
2023-01-23T11:15:23.346Z,4.63
2023-01-23T11:18:33.456Z,4.88
2023-01-23T11:21:55.398Z,5.10
2023-01-23T11:25:03.490Z,5.35
2023-01-23T11:28:27.308Z,4.85
2023-01-23T11:31:40.454Z,5.15
2023-01-23T11:34:51.442Z,5.32
2023-01-23T11:37:59.015Z,4.72
2023-01-23T11:41:08.199Z,5.15
2023-01-23T11:44:23.048Z,5.32
2023-01-23T11:47:49.055Z,4.68
2023-01-23T11:50:56.378Z,5.00
2023-01-23T11:54:11.736Z,4.95
2023-01-23T11:57:21.876Z,5.03
2023-01-23T12:00:39.522Z,5.15
2023-01-23T12:03:55.069Z,5.13
2023-01-23T12:07:18.032Z,4.30
2023-01-23T12:10:27.365Z,4.78
2023-01-23T12:13:45.288Z,4.40
2023-01-23T12:17:08.854Z,4.50
2023-01-23T12:20:30.853Z,4.63
2023-01-23T12:23:53.075Z,5.93
2023-01-23T12:27:09.893Z,4.70
2023-01-23T12:30:27.431Z,4.28
2023-01-23T12:33:50.934Z,3.80
2023-01-23T12:37:16.795Z,4.50
2023-01-23T12:40:31.964Z,5.57
2023-01-23T12:43:40.950Z,6.88
2023-01-23T12:46:53.276Z,3.45
2023-01-23T12:50:20.086Z,4.72
2023-01-23T12:53:35.206Z,5.53
2023-01-23T12:56:43.146Z,4.85
2023-01-23T12:59:58.883Z,4.95
2023-01-23T13:03:15.388Z,4.60
2023-01-23T13:06:31.399Z,6.30
2023-01-23T13:09:40.475Z,8.82
2023-01-23T13:12:51.463Z,5.72
2023-01-23T13:16:07.319Z,5.50
2023-01-23T13:19:37.536Z,5.60
2023-01-23T13:22:55.121Z,6.07
2023-01-23T13:26:19.199Z,5.47
2023-01-23T13:29:41.187Z,6.85
2023-01-23T13:32:52.996Z,5.45
2023-01-23T13:36:01.235Z,5.32
2023-01-23T13:39:21.516Z,5.20
2023-01-23T13:42:50.816Z,6.28
2023-01-23T13:45:59.880Z,5.40
2023-01-23T14:25:17.281Z,4.85
2023-01-23T14:28:25.252Z,6.32
2023-01-23T14:31:34.804Z,5.65
2023-01-23T14:34:42.033Z,5.65
2023-01-23T14:37:50.140Z,5.30
2023-01-23T14:40:59.188Z,5.28
2023-01-23T14:44:08.828Z,5.15
2023-01-23T14:47:18.090Z,5.32
2023-01-23T14:50:25.860Z,5.05
2023-01-23T14:53:31.945Z,4.50
2023-01-23T14:56:42.567Z,5.50
2023-01-23T14:59:51.104Z,4.57
2023-01-23T15:02:58.127Z,4.70
2023-01-23T15:06:07.934Z,5.22
2023-01-23T15:09:17.479Z,5.07
2023-01-23T15:12:26.159Z,5.75
2023-01-23T15:15:33.877Z,5.05
2023-01-23T15:18:41.495Z,6.10
2023-01-23T15:21:49.250Z,5.70
2023-01-23T15:24:58.033Z,5.32
2023-01-23T15:28:18.694Z,5.95
2023-01-23T15:31:54.502Z,5.57
2023-01-23T15:35:06.078Z,5.32
2023-01-23T15:38:20.635Z,5.38
2023-01-23T15:41:40.471Z,5.30
2023-01-23T15:44:50.687Z,5.57
2023-01-23T15:48:14.172Z,5.70
2023-01-23T15:51:24.095Z,5.35
2023-01-23T15:54:37.035Z,5.60
2023-01-23T15:57:49.582Z,5.47
2023-01-23T16:01:12.237Z,5.32
2023-01-23T16:04:23.549Z,6.10
2023-01-23T16:07:35.786Z,6.68
2023-01-23T16:10:45.432Z,6.47
2023-01-23T16:13:54.729Z,6.65
2023-01-23T16:17:15.340Z,6.05
2023-01-23T16:20:25.812Z,6.93
2023-01-23T16:23:42.592Z,6.90
2023-01-23T16:26:52.249Z,6.55
2023-01-23T16:29:58.255Z,5.40
2023-01-23T16:33:07.545Z,6.20
2023-01-23T16:36:24.067Z,5.97
2023-01-23T16:39:30.172Z,6.25
2023-01-23T16:42:49.985Z,5.78
2023-01-23T16:45:58.563Z,6.07
2023-01-23T16:49:04.062Z,6.68
2023-01-23T16:52:13.185Z,6.53
2023-01-23T16:55:23.837Z,6.32
2023-01-23T16:58:31.122Z,7.22
2023-01-23T17:01:39.274Z,8.70
2023-01-23T17:04:48.455Z,7.93
2023-01-23T17:07:57.594Z,7.40
2023-01-23T17:11:07.366Z,8.25
2023-01-23T17:14:17.266Z,7.53
2023-01-23T17:17:26.467Z,7.78
2023-01-23T17:20:34.221Z,7.60
2023-01-23T17:23:41.806Z,7.32
2023-01-23T17:26:47.346Z,6.68
2023-01-23T17:29:54.472Z,6.30
2023-01-23T17:33:00.977Z,6.80
2023-01-23T17:36:08.745Z,7.05
2023-01-23T17:39:22.794Z,6.72
2023-01-23T17:42:30.504Z,6.90
2023-01-23T17:45:41.284Z,7.55
2023-01-23T17:48:55.867Z,7.00
2023-01-23T17:52:12.691Z,6.72
2023-01-23T17:55:32.785Z,6.25
2023-01-23T17:58:40.688Z,6.68
2023-01-23T18:01:48.043Z,6.75
2023-01-23T18:05:01.036Z,7.88
2023-01-23T18:08:08.913Z,7.00
2023-01-23T18:11:24.078Z,7.28
2023-01-23T18:17:42.365Z,7.03
2023-01-23T18:20:50.118Z,6.80
2023-01-23T18:23:56.247Z,7.55
2023-01-23T18:27:11.990Z,7.68
2023-01-23T18:30:24.314Z,6.57
2023-01-23T18:33:44.284Z,7.47
2023-01-23T18:36:57.412Z,6.78
2023-01-23T18:40:03.925Z,7.75
2023-01-23T18:43:20.258Z,6.65
2023-01-23T18:46:28.380Z,7.25
2023-01-23T18:49:53.366Z,7.63
2023-01-23T18:53:07.037Z,7.38
2023-01-23T18:56:16.604Z,7.68
2023-01-23T18:59:27.040Z,7.88
2023-01-23T19:02:39.509Z,7.93
2023-01-23T19:05:47.670Z,7.60
2023-01-23T19:08:56.652Z,8.70
2023-01-23T19:12:14.024Z,8.75
2023-01-23T19:15:37.705Z,8.27
2023-01-23T19:18:49.985Z,7.70
2023-01-23T19:21:57.550Z,8.45
2023-01-23T19:25:03.387Z,8.80
2023-01-23T19:28:11.675Z,8.70
2023-01-23T19:31:49.722Z,7.75
2023-01-23T19:35:13.773Z,7.72
2023-01-23T19:38:19.309Z,7.55
2023-01-23T19:41:29.835Z,8.27
2023-01-23T19:44:35.965Z,7.95
2023-01-23T19:47:44.118Z,8.63
2023-01-23T19:51:01.251Z,8.75
2023-01-23T19:54:13.383Z,7.82
2023-01-23T19:57:22.394Z,7.43
2023-01-23T20:00:30.825Z,7.68
2023-01-23T20:03:38.199Z,7.55
2023-01-23T20:06:50.653Z,7.57
2023-01-23T20:09:59.851Z,8.52
2023-01-23T20:13:06.005Z,7.70
2023-01-23T20:16:18.621Z,7.93
2023-01-23T20:19:36.309Z,7.47
2023-01-23T20:22:46.275Z,7.55
2023-01-23T20:26:05.467Z,7.38
2023-01-23T20:29:10.798Z,8.00
2023-01-23T20:32:16.557Z,6.95
2023-01-23T20:35:34.899Z,8.02
2023-01-23T20:38:47.655Z,8.05
2023-01-23T20:41:56.847Z,7.32
2023-01-23T20:45:08.868Z,7.25
2023-01-23T20:48:14.412Z,8.18
2023-01-23T20:51:27.730Z,7.32
2023-01-23T20:54:40.636Z,7.40
2023-01-23T20:57:58.826Z,8.20
2023-01-23T21:01:12.836Z,7.10
2023-01-23T21:04:24.080Z,7.47
2023-01-23T21:07:35.659Z,7.00
2023-01-23T21:11:03.681Z,7.15
2023-01-23T21:14:09.088Z,6.53
2023-01-23T21:17:15.043Z,6.95
2023-01-23T21:20:21.031Z,6.82
2023-01-23T21:23:26.423Z,5.93
2023-01-23T21:26:36.239Z,7.47
2023-01-23T21:29:45.248Z,7.65
2023-01-23T21:32:53.220Z,6.93
2023-01-23T21:36:02.545Z,7.30
2023-01-23T21:39:10.332Z,7.10
2023-01-23T21:42:29.355Z,7.18
2023-01-23T21:45:38.184Z,6.05
2023-01-23T21:48:46.156Z,7.00
2023-01-23T21:51:51.257Z,6.78
2023-01-23T21:55:01.369Z,7.00
2023-01-23T21:58:12.892Z,7.07
2023-01-23T22:01:42.678Z,6.85
2023-01-23T22:04:54.393Z,6.57
2023-01-23T22:08:05.472Z,7.18
2023-01-23T22:11:14.176Z,6.63
2023-01-23T22:14:30.783Z,7.35
2023-01-23T22:17:38.350Z,6.07
2023-01-23T22:20:45.804Z,7.20
2023-01-23T22:23:57.227Z,5.85
2023-01-23T22:27:04.360Z,6.07
2023-01-23T22:30:15.847Z,7.18
2023-01-23T22:33:22.505Z,7.13
2023-01-23T22:36:30.363Z,6.22
2023-01-23T22:39:39.481Z,6.47
2023-01-23T22:42:44.479Z,6.00
2023-01-23T22:45:52.834Z,6.28
2023-01-23T22:48:58.806Z,6.40
2023-01-23T22:52:08.451Z,6.57
2023-01-23T22:55:13.963Z,6.60
2023-01-23T22:58:20.168Z,7.22
2023-01-23T23:01:28.637Z,6.75
2023-01-23T23:04:35.754Z,6.53
2023-01-23T23:07:45.018Z,6.10
2023-01-23T23:10:59.708Z,6.40
2023-01-23T23:14:06.146Z,6.72
2023-01-23T23:17:14.696Z,6.63
2023-01-23T23:20:19.948Z,6.25
2023-01-23T23:23:25.696Z,6.70
2023-01-23T23:26:33.459Z,11.63
2023-01-23T23:29:39.607Z,11.73
2023-01-23T23:32:51.680Z,8.02
2023-01-23T23:35:57.654Z,7.18
2023-01-23T23:39:04.057Z,7.05
2023-01-23T23:42:09.662Z,6.70
2023-01-23T23:45:14.676Z,6.43
2023-01-23T23:48:23.233Z,6.63
2023-01-23T23:51:29.045Z,6.93
2023-01-23T23:54:34.900Z,7.20
2023-01-23T23:57:45.859Z,7.30
